Time;durP1;ratioP1;P1;durP2;ratioP2;P2;SDS_P1;SDS_P2;PMS_P1;PMS_P2;Temp;Humidity;BMP_temperature;BMP_pressure;BME280_temperature;BME280_humidity;BME280_pressure;Samples;Min_cycle;Max_cycle;Signal;HPM_P1;HPM_P2
2021/06/14 00:02:05;;;;;;;1.92;0.30;;;13.30;64.10;;;;;;6184748;23;20334;-73
2021/06/14 00:04:34;;;;;;;2.75;0.30;;;13.30;64.40;;;;;;6184752;23;20013;-73
2021/06/14 00:07:00;;;;;;;0.47;0.30;;;13.30;64.20;;;;;;6184541;23;20488;-73
2021/06/14 00:09:26;;;;;;;1.25;0.35;;;13.30;64.50;;;;;;6184449;23;20005;-73
2021/06/14 00:11:53;;;;;;;1.58;0.50;;;13.30;64.60;;;;;;6185002;23;20088;-71
2021/06/14 00:14:20;;;;;;;1.75;0.30;;;13.30;64.80;;;;;;6184709;23;20012;-72
2021/06/14 00:16:46;;;;;;;2.55;0.40;;;13.20;64.90;;;;;;6184715;23;20009;-72
2021/06/14 00:19:12;;;;;;;1.33;0.30;;;13.20;64.90;;;;;;6184678;23;20005;-72
2021/06/14 00:21:38;;;;;;;1.70;0.32;;;13.20;65.00;;;;;;6184261;23;20005;-72
2021/06/14 00:24:08;;;;;;;0.75;0.20;;;13.10;65.00;;;;;;6184229;23;20440;-72
2021/06/14 00:26:34;;;;;;;1.60;0.32;;;13.10;65.10;;;;;;6184830;23;20355;-72
2021/06/14 00:29:01;;;;;;;1.27;0.30;;;13.10;65.40;;;;;;6184551;23;20146;-72
2021/06/14 00:31:27;;;;;;;0.68;0.20;;;13.10;65.50;;;;;;6184062;23;20034;-72
2021/06/14 00:33:53;;;;;;;1.65;0.30;;;13.10;65.70;;;;;;6184548;23;20012;-72
2021/06/14 00:36:19;;;;;;;0.32;0.20;;;13.10;65.70;;;;;;6184312;23;20329;-72
2021/06/14 00:38:45;;;;;;;0.20;0.20;;;13.00;65.90;;;;;;6184508;23;20075;-72
2021/06/14 00:41:11;;;;;;;1.08;0.30;;;13.00;66.00;;;;;;6184170;23;20009;-72
2021/06/14 00:43:38;;;;;;;0.63;0.30;;;13.00;66.20;;;;;;6184114;23;20013;-72
2021/06/14 00:46:05;;;;;;;1.58;0.40;;;13.00;66.30;;;;;;6183987;23;20017;-72
2021/06/14 00:48:31;;;;;;;0.82;0.40;;;13.00;66.10;;;;;;6184122;23;20020;-72
2021/06/14 00:51:03;;;;;;;0.98;0.32;;;13.00;66.30;;;;;;6184629;23;20013;-71
2021/06/14 00:53:31;;;;;;;0.85;0.40;;;13.00;66.70;;;;;;6183991;23;20492;-70
2021/06/14 00:55:59;;;;;;;0.63;0.28;;;13.00;66.70;;;;;;6183957;23;19997;-72
2021/06/14 00:58:26;;;;;;;1.10;0.43;;;13.00;66.80;;;;;;6184470;23;20008;-71
2021/06/14 01:00:52;;;;;;;0.73;0.30;;;13.10;67.10;;;;;;6184228;23;20007;-71
2021/06/14 01:03:18;;;;;;;0.77;0.20;;;13.00;66.90;;;;;;6184079;23;20346;-71
2021/06/14 01:05:48;;;;;;;1.38;0.32;;;13.00;66.90;;;;;;6183957;23;19997;-71
2021/06/14 01:08:14;;;;;;;0.87;0.40;;;13.00;67.20;;;;;;6184050;23;20009;-69
2021/06/14 01:44:21;;;;;;;2.08;0.65;;;12.80;68.90;;;;;;6155079;23;20071;-68
2021/06/14 01:46:48;;;;;;;1.42;0.75;;;12.90;69.30;;;;;;6181185;23;20079;-67
2021/06/14 01:49:14;;;;;;;1.48;0.75;;;12.90;69.10;;;;;;6183163;23;20080;-67
2021/06/14 01:51:41;;;;;;;1.23;0.77;;;12.90;69.10;;;;;;6183533;23;20001;-67
2021/06/14 01:54:07;;;;;;;1.08;0.60;;;12.90;68.90;;;;;;6183758;23;20040;-68
2021/06/14 01:56:39;;;;;;;2.58;0.93;;;12.90;69.40;;;;;;6183510;23;20055;-68
2021/06/14 01:59:08;;;;;;;2.17;0.60;;;12.90;69.30;;;;;;6183650;23;20009;-68
2021/06/14 02:01:37;;;;;;;0.52;0.50;;;12.90;69.60;;;;;;6183638;23;20001;-68
2021/06/14 02:04:04;;;;;;;0.90;0.52;;;12.90;69.90;;;;;;6183463;23;20037;-68
2021/06/14 02:06:33;;;;;;;1.67;1.58;;;12.90;69.80;;;;;;6185597;23;20004;-68
2021/06/14 02:09:03;;;;;;;1.70;0.60;;;12.90;69.90;;;;;;6159478;23;20348;-68
2021/06/14 02:11:31;;;;;;;0.70;0.50;;;13.00;69.90;;;;;;6185557;23;20440;-68
2021/06/14 02:13:58;;;;;;;0.60;0.50;;;13.00;70.20;;;;;;6185544;23;20425;-68
2021/06/14 02:16:25;;;;;;;1.10;0.60;;;12.90;70.10;;;;;;6185855;23;20080;-68
2021/06/14 02:18:51;;;;;;;2.40;0.70;;;12.90;70.20;;;;;;6185622;23;20342;-68
2021/06/14 02:21:18;;;;;;;1.00;0.60;;;12.90;70.40;;;;;;6185983;23;20439;-68
2021/06/14 02:23:44;;;;;;;1.02;0.40;;;12.90;70.70;;;;;;6185257;23;20333;-68
2021/06/14 02:26:10;;;;;;;1.05;0.57;;;12.90;71.00;;;;;;6185627;23;20008;-68
2021/06/14 02:28:36;;;;;;;0.65;0.50;;;12.90;70.80;;;;;;6185374;23;20055;-68
2021/06/14 02:31:03;;;;;;;0.60;0.55;;;12.90;71.20;;;;;;6185348;23;20001;-68
2021/06/14 02:33:28;;;;;;;1.05;0.32;;;12.80;71.20;;;;;;6185599;23;20004;-68
2021/06/14 02:35:54;;;;;;;1.88;0.45;;;12.80;71.40;;;;;;6185203;23;20005;-68
2021/06/14 02:38:20;;;;;;;1.42;0.40;;;12.80;71.50;;;;;;6185356;23;20032;-68
2021/06/14 02:40:46;;;;;;;3.47;0.70;;;12.80;71.50;;;;;;6185064;23;20001;-68
2021/06/14 02:43:12;;;;;;;0.80;0.40;;;12.80;71.30;;;;;;6185689;23;20013;-68
2021/06/14 02:45:40;;;;;;;1.10;0.52;;;12.90;71.10;;;;;;6184910;23;20017;-68
2021/06/14 02:48:07;;;;;;;0.82;0.60;;;12.90;71.30;;;;;;6185459;23;20005;-68
2021/06/14 02:50:35;;;;;;;0.50;0.40;;;12.90;71.60;;;;;;6185102;23;20536;-68
2021/06/14 02:53:07;;;;;;;1.98;0.40;;;12.90;72.00;;;;;;6185407;23;20008;-68
2021/06/14 02:55:39;;;;;;;3.53;0.60;;;13.00;72.50;;;;;;6185146;23;20005;-68
2021/06/14 02:58:06;;;;;;;0.70;0.50;;;12.90;72.50;;;;;;6185223;23;20445;-68
2021/06/14 03:00:33;;;;;;;2.70;0.50;;;12.90;72.50;;;;;;6185433;23;20089;-68
2021/06/14 03:03:00;;;;;;;0.45;0.40;;;12.90;72.70;;;;;;6185136;23;20015;-69
2021/06/14 03:05:27;;;;;;;1.95;0.60;;;12.80;72.70;;;;;;6184969;23;20004;-69
2021/06/14 03:07:57;;;;;;;1.27;0.63;;;12.80;73.30;;;;;;6185038;23;20048;-69
2021/06/14 03:10:24;;;;;;;1.38;0.55;;;12.80;73.60;;;;;;6185425;23;20001;-67
2021/06/14 03:12:53;;;;;;;1.30;0.80;;;12.80;73.40;;;;;;6184861;23;20429;-67
2021/06/14 03:15:21;;;;;;;1.92;0.50;;;12.80;73.70;;;;;;6158454;23;20013;-68
2021/06/14 03:17:47;;;;;;;4.03;0.50;;;12.80;73.30;;;;;;6184807;23;20040;-68
2021/06/14 03:20:14;;;;;;;0.77;0.32;;;12.80;73.60;;;;;;6184821;23;20425;-68
2021/06/14 03:22:40;;;;;;;0.98;0.50;;;12.80;73.60;;;;;;6185208;23;20009;-68
2021/06/14 03:25:07;;;;;;;1.80;0.47;;;12.70;73.70;;;;;;6184763;23;20452;-69
2021/06/14 03:27:34;;;;;;;2.78;0.50;;;12.60;73.90;;;;;;6185216;23;20084;-69
2021/06/14 03:30:01;;;;;;;0.88;0.50;;;12.60;74.20;;;;;;6184723;23;20001;-68
2021/06/14 03:32:28;;;;;;;0.93;0.50;;;12.60;74.60;;;;;;6184825;23;20005;-68
2021/06/14 03:34:54;;;;;;;1.08;0.52;;;12.70;74.90;;;;;;6184585;23;20706;-72
2021/06/14 03:37:20;;;;;;;0.50;0.50;;;13.30;80.50;;;;;;6184828;23;20436;-75
2021/06/14 03:39:46;;;;;;;3.60;0.55;;;13.90;75.30;;;;;;6184991;23;20004;-78
2021/06/14 03:42:17;;;;;;;2.00;0.40;;;13.70;75.30;;;;;;6184584;23;20079;-76
2021/06/14 03:44:43;;;;;;;0.60;0.32;;;13.50;75.40;;;;;;6184346;23;20590;-75
2021/06/14 03:47:09;;;;;;;0.50;0.50;;;13.30;74.80;;;;;;6184605;23;20005;-75
2021/06/14 03:49:35;;;;;;;0.70;0.50;;;13.20;76.00;;;;;;6184847;23;20322;-74
2021/06/14 03:52:00;;;;;;;5.32;0.77;;;13.10;75.90;;;;;;6184548;23;19997;-72
2021/06/14 03:54:26;;;;;;;1.17;0.63;;;13.00;76.70;;;;;;6185105;23;20102;-71
2021/06/14 03:56:52;;;;;;;0.70;0.65;;;12.90;76.60;;;;;;6158036;23;20028;-71
2021/06/14 03:59:18;;;;;;;2.92;0.60;;;12.90;76.80;;;;;;6184682;23;20005;-71
2021/06/14 04:01:44;;;;;;;1.35;0.60;;;13.00;77.40;;;;;;6184823;23;20048;-71
2021/06/14 04:04:54;;;;;;;7.00;0.65;;;12.90;77.70;;;;;;6184485;23;20013;-71
2021/06/14 04:06:58;;;;;;;1.30;0.70;;;12.90;78.00;;;;;;6168360;23;20008;-71
2021/06/14 04:09:24;;;;;;;1.30;0.50;;;12.90;78.20;;;;;;6184500;23;20005;-71
2021/06/14 04:11:50;;;;;;;3.00;0.57;;;12.90;79.20;;;;;;6184727;23;20080;-71
2021/06/14 04:14:16;;;;;;;1.77;0.70;;;12.90;80.00;;;;;;6184597;23;20083;-71
2021/06/14 04:16:42;;;;;;;2.72;0.60;;;12.90;79.50;;;;;;6184137;23;19997;-71
2021/06/14 04:19:08;;;;;;;3.55;0.80;;;12.90;80.10;;;;;;6184209;23;20016;-73
2021/06/14 04:21:33;;;;;;;3.08;0.73;;;12.90;80.20;;;;;;6184119;23;19997;-74
2021/06/14 04:23:59;;;;;;;1.73;0.77;;;13.00;80.60;;;;;;6183707;23;20059;-73
2021/06/14 04:26:25;;;;;;;2.53;1.45;;;13.00;81.30;;;;;;6183978;23;20009;-73
2021/06/14 04:28:51;;;;;;;6.95;0.90;;;13.00;81.10;;;;;;6183580;23;20005;-71
2021/06/14 04:31:16;;;;;;;3.53;0.75;;;13.00;81.10;;;;;;6184250;23;20005;-70
2021/06/14 04:33:42;;;;;;;1.73;0.95;;;13.10;82.50;;;;;;6184323;23;20368;-71
2021/06/14 04:36:08;;;;;;;1.13;0.80;;;13.10;81.90;;;;;;6184003;23;20001;-72
2021/06/14 04:38:34;;;;;;;1.83;0.90;;;13.20;82.50;;;;;;6184126;23;20440;-72
2021/06/14 04:41:00;;;;;;;3.08;1.17;;;13.20;82.60;;;;;;6183131;23;20005;-72
2021/06/14 04:43:26;;;;;;;2.47;1.00;;;13.30;83.60;;;;;;6183283;23;20475;-72
2021/06/14 04:45:52;;;;;;;1.63;0.95;;;13.30;85.10;;;;;;6183152;23;20017;-72
2021/06/14 04:48:18;;;;;;;3.85;0.82;;;13.30;86.50;;;;;;6183575;23;20051;-72
2021/06/14 04:50:43;;;;;;;3.15;1.00;;;13.30;88.00;;;;;;6183576;23;20028;-72
2021/06/14 04:53:09;;;;;;;2.42;1.10;;;13.30;88.10;;;;;;6157722;23;20144;-73
2021/06/14 04:55:35;;;;;;;2.30;0.90;;;13.40;90.40;;;;;;6184170;23;20004;-72
2021/06/14 04:58:00;;;;;;;1.50;1.10;;;13.60;92.60;;;;;;6184168;23;20515;-72
2021/06/14 05:00:28;;;;;;;1.67;1.00;;;13.60;90.70;;;;;;6157582;23;20008;-72
2021/06/14 05:02:54;;;;;;;1.27;1.02;;;13.60;90.40;;;;;;6183737;23;20068;-72
2021/06/14 05:05:19;;;;;;;2.13;1.08;;;13.60;90.90;;;;;;6183965;23;20066;-71
2021/06/14 05:07:45;;;;;;;3.53;1.00;;;13.60;91.10;;;;;;6183805;23;20008;-70
2021/06/14 05:10:11;;;;;;;2.35;1.20;;;13.60;90.70;;;;;;6183727;23;20503;-68
2021/06/14 05:12:37;;;;;;;1.67;1.30;;;13.60;91.20;;;;;;6182296;23;20036;-68
2021/06/14 05:15:05;;;;;;;2.17;1.10;;;13.60;90.60;;;;;;6183239;23;20410;-68
2021/06/14 05:17:30;;;;;;;1.67;1.13;;;13.60;90.60;;;;;;6183533;23;20025;-68
2021/06/14 05:19:56;;;;;;;2.28;1.15;;;13.60;90.20;;;;;;6183732;23;20005;-67
2021/06/14 05:22:22;;;;;;;4.25;1.30;;;13.70;90.20;;;;;;6183437;23;20005;-70
2021/06/14 05:24:47;;;;;;;3.00;1.20;;;13.80;88.50;;;;;;6183079;23;20033;-70
2021/06/14 05:27:13;;;;;;;1.90;1.20;;;13.70;88.40;;;;;;6183395;23;20001;-70
2021/06/14 05:29:39;;;;;;;4.00;1.30;;;13.70;88.70;;;;;;6183362;23;20008;-69
2021/06/14 05:32:06;;;;;;;2.58;1.20;;;13.70;87.90;;;;;;6181793;23;19997;-69
2021/06/14 05:34:32;;;;;;;1.85;1.20;;;13.80;88.30;;;;;;6182694;23;20005;-69
2021/06/14 05:36:57;;;;;;;2.45;1.60;;;13.80;89.80;;;;;;6181986;23;20436;-68
2021/06/14 05:39:23;;;;;;;3.28;1.15;;;13.80;87.50;;;;;;6181460;23;20005;-68
2021/06/14 05:41:49;;;;;;;2.00;1.30;;;13.90;87.60;;;;;;6182429;23;20472;-68
2021/06/14 05:44:15;;;;;;;2.13;1.42;;;14.00;85.80;;;;;;6181968;23;20013;-69
2021/06/14 05:46:41;;;;;;;2.15;1.00;;;14.00;85.80;;;;;;6182228;23;20009;-68
2021/06/14 05:49:07;;;;;;;4.65;1.42;;;14.00;86.50;;;;;;6182974;23;20032;-67
2021/06/14 05:51:33;;;;;;;2.28;1.17;;;14.10;87.70;;;;;;6183126;23;20052;-68
2021/06/14 05:53:59;;;;;;;17.13;2.22;;;14.10;88.00;;;;;;6183351;23;20021;-68
2021/06/14 05:56:25;;;;;;;3.10;1.70;;;14.20;85.90;;;;;;6183741;23;20307;-67
2021/06/14 05:58:54;;;;;;;3.40;1.80;;;14.20;85.80;;;;;;6183347;23;19998;-68
2021/06/14 06:01:20;;;;;;;2.13;1.50;;;14.30;86.90;;;;;;6183686;23;20088;-68
2021/06/14 06:03:45;;;;;;;4.60;1.30;;;14.30;85.60;;;;;;6181941;23;20685;-67
2021/06/14 06:06:11;;;;;;;1.75;1.25;;;14.30;85.60;;;;;;6182916;23;20024;-67
2021/06/14 06:08:37;;;;;;;3.83;1.30;;;14.30;85.40;;;;;;6183156;23;20031;-67
2021/06/14 06:11:03;;;;;;;3.72;1.48;;;14.40;84.70;;;;;;6183164;23;20003;-67
2021/06/14 06:13:29;;;;;;;6.25;1.77;;;14.50;84.10;;;;;;6179892;23;20020;-68
2021/06/14 06:15:55;;;;;;;11.50;1.67;;;14.50;84.00;;;;;;6179646;23;20077;-68
2021/06/14 06:18:21;;;;;;;4.63;1.55;;;14.60;83.10;;;;;;6183109;23;20047;-68
2021/06/14 06:20:47;;;;;;;2.50;1.60;;;14.70;83.20;;;;;;6183094;23;20005;-68
2021/06/14 06:23:13;;;;;;;4.82;1.45;;;14.70;83.90;;;;;;6183107;23;20029;-67
2021/06/14 06:25:39;;;;;;;3.67;1.95;;;14.80;83.40;;;;;;6183414;23;20001;-67
2021/06/14 06:28:05;;;;;;;14.55;2.70;;;14.80;81.70;;;;;;6183320;23;20009;-67
2021/06/14 06:30:32;;;;;;;3.28;1.77;;;14.90;83.00;;;;;;6157012;23;20426;-67
2021/06/14 06:32:58;;;;;;;9.82;2.42;;;14.90;82.80;;;;;;6182724;23;20016;-68
2021/06/14 06:35:24;;;;;;;2.50;1.50;;;15.00;82.00;;;;;;6183259;23;20025;-67
2021/06/14 06:37:50;;;;;;;4.07;1.35;;;15.00;81.60;;;;;;6182871;23;20001;-69
2021/06/14 06:40:16;;;;;;;5.88;1.50;;;15.10;81.40;;;;;;6183187;23;20012;-67
2021/06/14 06:42:43;;;;;;;6.57;1.70;;;15.30;81.90;;;;;;6182926;23;20330;-67
2021/06/14 06:45:10;;;;;;;5.07;1.70;;;15.40;81.60;;;;;;6183173;23;20049;-67
2021/06/14 06:47:36;;;;;;;4.20;1.63;;;15.40;80.90;;;;;;6156977;23;20062;-67
2021/06/14 06:50:05;;;;;;;4.80;1.70;;;15.40;80.90;;;;;;6156799;23;20013;-67
2021/06/14 06:52:31;;;;;;;5.30;1.70;;;15.50;80.10;;;;;;6158403;23;20029;-67
2021/06/14 06:54:57;;;;;;;1.77;1.65;;;15.50;79.20;;;;;;6185090;23;20005;-67
2021/06/14 06:57:25;;;;;;;3.60;1.63;;;15.50;78.20;;;;;;6185300;23;20011;-67
2021/06/14 06:59:50;;;;;;;2.05;1.52;;;15.50;78.10;;;;;;6184754;23;20337;-69
2021/06/14 07:02:16;;;;;;;2.63;1.30;;;15.50;79.00;;;;;;6185142;23;20009;-68
2021/06/14 07:04:42;;;;;;;1.55;1.45;;;15.60;79.30;;;;;;6184733;23;20431;-68
2021/06/14 07:07:07;;;;;;;1.58;1.42;;;15.60;77.50;;;;;;6184840;23;20008;-68
2021/06/14 07:09:33;;;;;;;2.80;1.50;;;15.60;78.10;;;;;;6184883;23;20115;-68
2021/06/14 07:11:59;;;;;;;4.50;1.65;;;15.60;78.70;;;;;;6184572;23;20009;-68
2021/06/14 07:14:25;;;;;;;2.67;1.77;;;15.60;78.20;;;;;;6185014;23;20001;-68
2021/06/14 07:16:51;;;;;;;1.85;1.60;;;15.70;77.40;;;;;;6184728;23;20001;-68
2021/06/14 07:19:17;;;;;;;2.95;1.75;;;15.70;77.20;;;;;;6185300;23;20071;-68
2021/06/14 07:21:43;;;;;;;2.25;1.75;;;15.80;76.90;;;;;;6184622;23;20491;-67
2021/06/14 07:24:09;;;;;;;2.30;1.80;;;15.80;76.10;;;;;;6184439;23;20468;-68
2021/06/14 07:26:36;;;;;;;2.30;1.80;;;15.80;76.30;;;;;;6184820;23;19998;-68
2021/06/14 07:29:03;;;;;;;5.90;2.05;;;15.80;75.80;;;;;;6158342;23;20438;-67
2021/06/14 07:31:29;;;;;;;7.43;2.10;;;15.80;76.80;;;;;;6184703;23;20001;-68
2021/06/14 07:34:01;;;;;;;3.65;2.15;;;15.90;76.60;;;;;;6183981;23;20005;-68
2021/06/14 07:36:27;;;;;;;4.53;2.00;;;15.90;76.50;;;;;;6158326;23;20011;-68
2021/06/14 07:38:53;;;;;;;6.47;1.98;;;15.90;76.70;;;;;;6184729;23;20001;-68
2021/06/14 07:41:19;;;;;;;2.05;1.80;;;15.80;76.50;;;;;;6184863;23;20408;-68
2021/06/14 07:43:45;;;;;;;2.42;1.80;;;15.80;76.10;;;;;;6183481;23;20009;-71
2021/06/14 07:46:11;;;;;;;2.78;1.65;;;15.80;75.70;;;;;;6184437;23;20017;-68
2021/06/14 07:48:36;;;;;;;3.03;1.73;;;15.90;76.40;;;;;;6184523;23;20483;-68
2021/06/14 07:51:04;;;;;;;4.10;1.33;;;15.90;75.30;;;;;;6184574;23;20008;-68
2021/06/14 07:53:31;;;;;;;2.05;1.40;;;15.90;75.60;;;;;;6184446;23;20028;-68
2021/06/14 07:55:57;;;;;;;2.90;1.40;;;16.00;75.20;;;;;;6184397;23;20505;-68
2021/06/14 07:58:24;;;;;;;2.08;1.20;;;15.90;74.60;;;;;;6184665;23;20001;-68
2021/06/14 08:00:50;;;;;;;3.60;1.15;;;15.90;74.60;;;;;;6184517;23;20060;-68
2021/06/14 08:03:17;;;;;;;2.13;1.35;;;15.90;73.30;;;;;;6184054;23;20043;-67
2021/06/14 08:05:46;;;;;;;4.22;1.30;;;15.90;74.00;;;;;;6184967;23;20076;-67
2021/06/14 08:08:13;;;;;;;4.20;1.63;;;15.90;74.80;;;;;;6158248;23;20096;-67
2021/06/14 08:10:39;;;;;;;1.95;1.20;;;15.90;75.70;;;;;;6184475;23;20005;-67
2021/06/14 08:13:05;;;;;;;10.73;1.00;;;16.00;74.40;;;;;;6184140;23;20333;-68
2021/06/14 08:15:31;;;;;;;1.02;0.90;;;15.90;73.60;;;;;;6184367;23;20001;-67
2021/06/14 08:25:32;;;;;;;2.50;0.73;;;16.00;71.80;;;;;;6194592;23;20031;-68
2021/06/14 08:27:58;;;;;;;2.88;0.95;;;16.00;72.00;;;;;;6184016;23;20448;-68
2021/06/14 08:30:26;;;;;;;2.35;1.00;;;16.10;72.30;;;;;;6184246;23;19993;-68
2021/06/14 08:32:51;;;;;;;1.30;0.70;;;16.20;72.00;;;;;;6184472;23;20001;-67
2021/06/14 08:35:20;;;;;;;1.60;0.98;;;16.20;72.20;;;;;;6184305;23;20009;-68
2021/06/14 08:37:48;;;;;;;1.52;1.17;;;16.20;72.30;;;;;;6183929;23;20061;-67
2021/06/14 08:40:18;;;;;;;3.28;1.00;;;16.30;72.70;;;;;;6184525;23;20044;-68
2021/06/14 08:42:44;;;;;;;6.95;1.05;;;16.30;72.70;;;;;;6184061;23;20013;-68
2021/06/14 08:45:12;;;;;;;4.20;0.80;;;16.30;72.50;;;;;;6183623;23;20143;-68
2021/06/14 08:47:39;;;;;;;7.45;1.15;;;16.30;72.60;;;;;;6184249;23;20009;-67
2021/06/14 08:50:08;;;;;;;8.63;1.42;;;16.40;73.00;;;;;;6184216;23;20033;-68
2021/06/14 08:52:35;;;;;;;2.30;1.00;;;16.40;72.80;;;;;;6183843;23;20028;-68
2021/06/14 08:55:01;;;;;;;1.63;0.60;;;16.40;72.50;;;;;;6184149;23;20009;-67
2021/06/14 08:57:27;;;;;;;4.45;1.00;;;16.40;73.00;;;;;;6184249;23;20028;-68
2021/06/14 08:59:52;;;;;;;2.65;0.70;;;16.40;72.50;;;;;;6183838;23;20005;-69
2021/06/14 09:02:18;;;;;;;2.03;0.80;;;16.40;72.00;;;;;;6184011;23;20058;-70
2021/06/14 09:04:45;;;;;;;3.40;0.80;;;16.40;72.70;;;;;;6183229;23;20011;-70
2021/06/14 09:07:11;;;;;;;1.48;0.70;;;16.40;73.60;;;;;;6183303;23;20524;-70
2021/06/14 09:09:37;;;;;;;1.88;0.80;;;16.50;72.80;;;;;;6183310;23;20005;-70
2021/06/14 09:12:04;;;;;;;2.05;0.77;;;16.50;73.50;;;;;;6183368;23;20104;-71
2021/06/14 09:14:35;;;;;;;1.60;0.95;;;16.70;74.50;;;;;;6157032;23;20016;-67
2021/06/14 09:17:17;;;;;;;2.50;0.80;;;16.80;74.50;;;;;;6157198;23;20404;-67
2021/06/14 09:20:01;;;;;;;5.10;0.90;;;16.90;73.30;;;;;;6183456;23;20001;-67
2021/06/14 09:22:27;;;;;;;1.98;0.80;;;16.90;72.90;;;;;;6183511;23;20420;-67
2021/06/14 09:24:56;;;;;;;3.17;0.75;;;16.90;72.60;;;;;;6183564;23;20032;-67
2021/06/14 09:27:48;;;;;;;10.55;1.00;;;17.00;73.70;;;;;;6183771;23;20001;-67
2021/06/14 09:30:14;;;;;;;2.25;0.57;;;17.00;73.80;;;;;;6182986;23;20013;-67
2021/06/14 09:32:52;;;;;;;3.72;0.80;;;17.00;72.50;;;;;;6183621;23;20013;-68
2021/06/14 09:35:20;;;;;;;6.03;1.35;;;17.10;73.10;;;;;;6183495;23;20417;-68
2021/06/14 09:38:06;;;;;;;1.42;0.82;;;17.10;72.60;;;;;;6157226;23;20008;-68
2021/06/14 09:40:51;;;;;;;2.97;0.88;;;17.20;73.60;;;;;;6179845;23;20008;-67
2021/06/14 09:43:38;;;;;;;1.52;0.70;;;17.30;73.00;;;;;;6183156;23;20602;-71
2021/06/14 09:46:29;;;;;;;4.55;0.80;;;17.30;72.80;;;;;;6181792;23;20055;-67
2021/06/14 09:48:58;;;;;;;1.20;0.77;;;17.30;72.40;;;;;;6183481;23;20001;-67
2021/06/14 09:51:24;;;;;;;23.30;2.10;;;17.30;72.70;;;;;;6183450;23;20000;-67
2021/06/14 09:53:55;;;;;;;3.10;1.05;;;17.30;72.80;;;;;;6183136;23;20220;-67
2021/06/14 09:56:22;;;;;;;;;;;17.40;73.00;;;;;;6184110;23;20322;-67
2021/06/14 09:58:50;;;;;;;4.53;0.77;;;17.40;73.00;;;;;;6183854;23;19946;-67
2021/06/14 10:01:32;;;;;;;23.98;1.73;;;17.40;73.10;;;;;;6183443;23;20005;-67
2021/06/14 10:04:04;;;;;;;24.15;1.90;;;17.30;73.20;;;;;;6183313;23;20075;-67
2021/06/14 10:06:38;;;;;;;6.60;0.90;;;17.20;73.90;;;;;;6183597;23;20005;-67
2021/06/14 10:09:15;;;;;;;5.07;0.80;;;17.20;73.60;;;;;;6183851;23;20009;-67
2021/06/14 10:11:43;;;;;;;4.45;0.70;;;17.20;73.90;;;;;;6183665;23;20007;-67
2021/06/14 10:14:17;;;;;;;3.05;0.80;;;17.20;74.20;;;;;;6183692;23;20486;-68
2021/06/14 10:16:46;;;;;;;10.50;0.70;;;17.20;73.90;;;;;;6183123;23;20398;-68
2021/06/14 10:19:14;;;;;;;2.67;1.05;;;17.20;74.50;;;;;;6183930;23;20001;-67
2021/06/14 10:21:51;;;;;;;7.10;1.00;;;17.20;74.30;;;;;;6156686;23;20009;-67
2021/06/14 10:24:19;;;;;;;8.18;1.10;;;17.20;75.70;;;;;;6183639;23;20048;-68
2021/06/14 10:26:47;;;;;;;6.15;1.20;;;17.20;76.00;;;;;;6184309;23;20001;-68
2021/06/14 10:29:15;;;;;;;12.73;1.48;;;17.10;75.50;;;;;;6185426;23;20087;-67
2021/06/14 10:31:45;;;;;;;1.58;0.80;;;17.10;75.60;;;;;;6185151;23;20005;-67
2021/06/14 10:34:12;;;;;;;0.98;0.73;;;17.20;76.40;;;;;;6185653;23;20326;-67
2021/06/14 10:36:42;;;;;;;14.65;1.02;;;17.20;76.30;;;;;;6185199;23;20012;-67
2021/06/14 10:39:10;;;;;;;13.55;1.30;;;17.30;75.90;;;;;;6185475;23;20433;-67
2021/06/14 10:41:36;;;;;;;1.27;0.57;;;17.30;75.70;;;;;;6185334;23;20005;-67
2021/06/14 10:44:06;;;;;;;4.53;0.80;;;17.40;75.80;;;;;;6184725;23;20078;-68
2021/06/14 10:46:33;;;;;;;1.60;0.90;;;17.40;74.90;;;;;;6185090;23;20053;-67
2021/06/14 10:49:01;;;;;;;1.30;0.70;;;17.50;74.80;;;;;;6185098;23;20012;-67
2021/06/14 10:51:32;;;;;;;22.25;1.15;;;17.60;75.00;;;;;;6158924;23;20012;-67
2021/06/14 10:54:11;;;;;;;7.38;1.13;;;17.60;74.40;;;;;;6185112;23;20032;-68
2021/06/14 10:56:39;;;;;;;2.97;0.88;;;17.70;74.30;;;;;;6185330;23;20036;-68
2021/06/14 10:59:08;;;;;;;4.22;0.90;;;17.80;74.00;;;;;;6184928;23;20003;-68
2021/06/14 11:01:39;;;;;;;4.90;0.90;;;17.80;74.00;;;;;;6185088;23;20433;-67
2021/06/14 11:04:07;;;;;;;3.85;1.08;;;17.90;74.70;;;;;;6184851;23;20096;-67
2021/06/14 11:06:36;;;;;;;4.35;1.10;;;17.90;73.40;;;;;;6184939;23;20001;-68
2021/06/14 11:09:13;;;;;;;4.22;1.15;;;18.00;73.50;;;;;;6185272;23;20331;-68
2021/06/14 11:11:56;;;;;;;3.83;0.88;;;18.10;74.20;;;;;;6184991;23;20008;-68
2021/06/14 11:14:43;;;;;;;41.47;2.58;;;18.10;74.10;;;;;;6184997;23;20008;-67
2021/06/14 11:17:17;;;;;;;2.33;0.82;;;18.20;73.80;;;;;;6184745;23;20059;-67
2021/06/14 11:19:59;;;;;;;1.02;0.70;;;18.20;74.90;;;;;;6185101;23;20028;-67
2021/06/14 11:22:43;;;;;;;4.35;0.70;;;18.30;74.60;;;;;;6184740;23;20005;-67
2021/06/14 11:25:33;;;;;;;1.55;0.80;;;18.40;72.60;;;;;;6184472;23;20001;-67
2021/06/14 11:28:03;;;;;;;2.63;0.88;;;18.40;72.40;;;;;;6184755;23;20028;-68
2021/06/14 11:30:39;;;;;;;1.63;0.98;;;18.50;72.00;;;;;;6159744;23;20001;-68
2021/06/14 11:33:07;;;;;;;1.20;0.60;;;18.60;71.00;;;;;;6184769;23;20055;-68
2021/06/14 11:35:33;;;;;;;7.30;0.95;;;18.70;70.20;;;;;;6185016;23;20009;-67
2021/06/14 11:38:01;;;;;;;0.70;0.50;;;18.70;70.40;;;;;;6184686;23;20411;-67
2021/06/14 11:40:30;;;;;;;0.65;0.50;;;18.70;69.30;;;;;;6158211;23;20005;-67
2021/06/14 11:43:11;;;;;;;3.35;0.60;;;18.70;68.80;;;;;;6184360;23;20491;-67
2021/06/14 11:45:48;;;;;;;1.10;0.80;;;18.70;69.40;;;;;;6184532;23;20049;-67
2021/06/14 11:48:31;;;;;;;1.58;0.70;;;18.70;68.40;;;;;;6184872;23;20002;-67
2021/06/14 11:51:07;;;;;;;3.17;0.82;;;18.70;69.00;;;;;;6184769;23;20001;-67
2021/06/14 11:53:44;;;;;;;13.48;1.23;;;18.80;69.60;;;;;;6184541;23;19997;-68
2021/06/14 11:56:13;;;;;;;2.08;1.17;;;18.80;69.10;;;;;;6184578;23;20009;-68
2021/06/14 11:58:42;;;;;;;1.10;0.60;;;18.80;69.00;;;;;;6158279;23;20005;-68
2021/06/14 12:01:08;;;;;;;1.10;0.70;;;18.80;68.90;;;;;;6184595;23;20020;-68
2021/06/14 12:03:34;;;;;;;2.00;0.82;;;18.80;69.20;;;;;;6184738;23;20017;-68
2021/06/14 12:06:00;;;;;;;1.38;0.80;;;18.90;68.70;;;;;;6184249;23;20120;-68
2021/06/14 12:08:27;;;;;;;2.65;0.90;;;18.90;68.00;;;;;;6184923;23;20062;-68
2021/06/14 12:10:55;;;;;;;0.65;0.63;;;18.90;69.10;;;;;;6184495;23;20001;-68
2021/06/14 12:13:22;;;;;;;18.10;1.35;;;19.00;67.50;;;;;;6184108;23;20005;-69
2021/06/14 12:15:50;;;;;;;2.53;0.80;;;19.10;68.00;;;;;;6184377;23;20459;-71
2021/06/14 12:21:38;;;;;;;4.55;0.60;;;19.40;68.40;;;;;;6184578;23;20020;-72
2021/06/14 12:24:18;;;;;;;1.77;0.70;;;19.50;67.60;;;;;;6184051;23;20013;-72
2021/06/14 12:26:44;;;;;;;1.05;0.60;;;19.80;66.90;;;;;;6184816;23;20001;-73
2021/06/14 12:29:19;;;;;;;4.75;0.95;;;19.80;65.20;;;;;;6184714;23;20497;-68
2021/06/14 12:31:46;;;;;;;1.35;1.08;;;19.80;64.80;;;;;;6184179;23;20417;-69
2021/06/14 12:34:11;;;;;;;2.60;0.52;;;19.70;66.20;;;;;;6157724;23;20398;-69
2021/06/14 12:36:37;;;;;;;2.35;0.80;;;19.70;66.10;;;;;;6184488;23;20063;-68
2021/06/14 12:39:04;;;;;;;2.72;1.05;;;19.60;66.40;;;;;;6184353;23;20001;-69
2021/06/14 12:41:29;;;;;;;6.70;1.02;;;19.60;66.70;;;;;;6184737;23;20041;-69
2021/06/14 12:43:58;;;;;;;64.50;4.55;;;19.60;66.60;;;;;;6157366;23;20319;-69
2021/06/14 12:46:36;;;;;;;3.00;0.70;;;19.70;66.10;;;;;;6183817;23;20013;-68
2021/06/14 12:49:02;;;;;;;15.00;2.08;;;19.70;65.20;;;;;;6157496;23;20020;-69
2021/06/14 12:51:33;;;;;;;2.17;0.80;;;19.70;65.50;;;;;;6184291;23;20001;-70
2021/06/14 12:53:59;;;;;;;0.73;0.60;;;19.60;65.10;;;;;;6184111;23;20060;-70
2021/06/14 12:56:25;;;;;;;1.58;0.80;;;19.60;66.30;;;;;;6184118;23;20368;-68
2021/06/14 12:58:51;;;;;;;2.65;0.80;;;19.70;65.00;;;;;;6183968;23;20005;-68
2021/06/14 13:01:20;;;;;;;7.55;1.00;;;19.80;66.40;;;;;;6182896;23;20004;-68
2021/06/14 13:03:48;;;;;;;0.50;0.50;;;19.90;65.00;;;;;;6183657;23;20013;-68
2021/06/14 13:06:13;;;;;;;1.50;0.52;;;19.80;63.40;;;;;;6183614;23;20001;-68
2021/06/14 13:08:45;;;;;;;1.45;0.70;;;19.80;63.30;;;;;;6183938;23;20027;-68
2021/06/14 13:11:15;;;;;;;2.50;0.80;;;19.70;64.10;;;;;;6183538;23;20333;-68
2021/06/14 13:13:50;;;;;;;3.13;0.82;;;19.70;63.90;;;;;;6183410;23;20092;-68
2021/06/14 13:16:17;;;;;;;0.93;0.80;;;19.70;63.70;;;;;;6182193;23;20012;-67
2021/06/14 13:19:04;;;;;;;6.18;1.38;;;19.70;63.20;;;;;;6183535;23;20002;-67
2021/06/14 13:21:34;;;;;;;1.75;0.80;;;19.60;64.30;;;;;;6182632;23;20001;-67
2021/06/14 13:24:06;;;;;;;5.18;1.25;;;19.60;63.90;;;;;;6183395;23;20099;-66
2021/06/14 13:26:47;;;;;;;1.00;0.70;;;19.60;64.00;;;;;;6183208;23;20032;-67
2021/06/14 13:29:15;;;;;;;5.32;1.23;;;19.50;63.80;;;;;;6183119;23;20028;-66
2021/06/14 13:31:43;;;;;;;5.00;0.90;;;19.50;64.90;;;;;;6157019;23;20004;-67
2021/06/14 13:34:22;;;;;;;2.35;0.80;;;19.50;65.00;;;;;;6156576;23;20480;-67
2021/06/14 13:36:49;;;;;;;1.48;1.00;;;19.60;64.70;;;;;;6183461;23;20005;-67